»·PEaware :: CFEGU KSAN-KSNA

CFEGU :: KSAN-KSNA

FLIGHT INFORMATION

Flight Status: Arrived
Operator: Unknown
More flights by this operator :: More flights under this callsign
Pilot: Vincent M. (370)
Aircraft: CESSNA 172 SKYHAWK
(C172)
More flights by this aircraft type
Origin: KSAN San Diego Intl-Lindbergh
United States
Destination: KSNA John Wayne-Orange Co
United States
More flights between these airports :: More routes between these airports
Route: +
File this flight plan on PilotEdge
Remarks:
Altitude:
(Current/Filed)
2,000ft
Speed:
(Current/Filed)
0kts
Departed: 01-Jan-20 04:03 PM
Arrived: 01-Jan-20 04:51 PM
Distance/Time
Traveled:
66nm/0:48
Distance/Time
To Go:
Arrived

Flight Plot

Page will automatically refresh every two minutes.


Map Options




Map Legend


Flown Route
Filed Route
Departure Airport
Arrival Airport
Navaid (VOR, NDB)
Fix

Horizontal Profiles

Position Reports

Time Latitude Longitude Heading Altitude Ground
Speed
01-Jan-20 15:56 32.731593 -117.190495 330 21ft 0kts
01-Jan-20 15:57 32.731593 -117.190495 330 21ft 0kts
01-Jan-20 15:58 32.731593 -117.190495 330 21ft 0kts
01-Jan-20 15:59 32.731593 -117.190495 330 21ft 0kts
01-Jan-20 16:00 32.732107 -117.187995 106 21ft 17kts
01-Jan-20 16:01 32.730291 -117.180627 104 21ft 22kts
01-Jan-20 16:02 32.729549 -117.176607 37 21ft 0kts
01-Jan-20 16:03 32.731099 -117.179699 286 21ft 66kts
01-Jan-20 16:04 32.741902 -117.202648 320 739ft 97kts
01-Jan-20 16:05 32.766086 -117.220211 322 1449ft 103kts
01-Jan-20 16:06 32.790250 -117.236994 322 2029ft 100kts
01-Jan-20 16:07 32.815221 -117.254362 322 2043ft 105kts
01-Jan-20 16:08 32.840284 -117.273091 322 2007ft 105kts
01-Jan-20 16:09 32.864909 -117.291658 322 1980ft 105kts
01-Jan-20 16:10 32.890468 -117.309575 322 1974ft 108kts
01-Jan-20 16:11 32.916445 -117.327633 323 1971ft 108kts
01-Jan-20 16:12 32.942458 -117.345677 323 1971ft 108kts
01-Jan-20 16:12 32.963830 -117.360657 323 1989ft 104kts
01-Jan-20 16:13 32.988638 -117.378188 323 1989ft 103kts
01-Jan-20 16:15 33.017852 -117.398791 323 1990ft 106kts
01-Jan-20 16:15 33.039522 -117.412901 332 2269ft 108kts
01-Jan-20 16:16 33.067647 -117.424664 333 2757ft 106kts
01-Jan-20 16:18 33.099643 -117.437300 333 3322ft 101kts
01-Jan-20 16:18 33.116296 -117.445337 328 3772ft 88kts
01-Jan-20 16:19 33.136876 -117.455237 328 4476ft 79kts
01-Jan-20 16:20 33.159733 -117.467175 329 4499ft 95kts
01-Jan-20 16:21 33.182944 -117.480709 329 4498ft 87kts
01-Jan-20 16:22 33.203032 -117.494881 324 4499ft 82kts
01-Jan-20 16:23 33.221473 -117.511695 324 4501ft 86kts
01-Jan-20 16:24 33.240177 -117.530223 324 4225ft 86kts
01-Jan-20 16:25 33.258224 -117.548556 324 3725ft 85kts
01-Jan-20 16:26 33.276742 -117.567151 324 3233ft 93kts
01-Jan-20 16:27 33.297850 -117.587813 324 2741ft 101kts
01-Jan-20 16:28 33.318845 -117.608160 324 2506ft 89kts
01-Jan-20 16:29 33.336615 -117.625727 324 2508ft 79kts
01-Jan-20 16:30 33.354138 -117.643050 325 2513ft 94kts
01-Jan-20 16:31 33.373652 -117.661751 324 2510ft 101kts
01-Jan-20 16:32 33.395666 -117.682739 324 2508ft 98kts
01-Jan-20 16:33 33.416777 -117.702895 324 2509ft 98kts
01-Jan-20 16:34 33.437839 -117.724022 315 2509ft 100kts
01-Jan-20 16:35 33.453871 -117.751644 305 2502ft 102kts
01-Jan-20 16:36 33.467484 -117.780548 304 2501ft 97kts
01-Jan-20 16:37 33.481808 -117.807386 304 2504ft 94kts
01-Jan-20 16:38 33.497322 -117.832603 304 2508ft 94kts
01-Jan-20 16:39 33.513158 -117.857879 301 2512ft 96kts
01-Jan-20 16:40 33.529635 -117.883323 301 2516ft 97kts
01-Jan-20 16:41 33.546277 -117.908896 301 2520ft 97kts
01-Jan-20 16:42 33.562109 -117.933136 301 2522ft 97kts
01-Jan-20 16:43 33.586285 -117.938326 25 2312ft 122kts
01-Jan-20 16:44 33.617451 -117.927821 2 1812ft 115kts
01-Jan-20 16:45 33.648294 -117.917064 31 1312ft 121kts
01-Jan-20 16:46 33.675120 -117.893621 32 999ft 112kts
01-Jan-20 16:47 33.700069 -117.871836 32 999ft 110kts
01-Jan-20 16:48 33.698311 -117.853806 215 449ft 67kts
01-Jan-20 16:49 33.682558 -117.864473 209 89ft 58kts
01-Jan-20 16:50 33.678098 -117.868432 269 60ft 0kts
01-Jan-20 16:51 33.676154 -117.870264 240 60ft 0kts
01-Jan-20 16:52 33.676154 -117.870264 240 60ft 0kts
01-Jan-20 16:53 33.676154 -117.870264 240 60ft 0kts
01-Jan-20 16:54 33.676154 -117.870264 240 60ft 0kts
01-Jan-20 16:55 33.676154 -117.870264 240 60ft 0kts
01-Jan-20 16:56 33.676154 -117.870264 240 60ft 0kts

Navigation Log

Ident Type
Flight plan parsing failed, navigation log unavailable